sensor_id;sensor_type;location;lat;lon;timestamp;temperature;humidity
22645;DHT22;11489;50.834;6.752;2024-03-17T00:01:01;5.50;97.50
22645;DHT22;11489;50.834;6.752;2024-03-17T00:03:28;5.40;97.50
22645;DHT22;11489;50.834;6.752;2024-03-17T00:05:58;5.40;97.60
22645;DHT22;11489;50.834;6.752;2024-03-17T00:08:24;5.40;97.60
22645;DHT22;11489;50.834;6.752;2024-03-17T00:10:51;5.30;97.60
22645;DHT22;11489;50.834;6.752;2024-03-17T00:13:18;5.30;97.60
22645;DHT22;11489;50.834;6.752;2024-03-17T00:15:44;5.30;97.60
22645;DHT22;11489;50.834;6.752;2024-03-17T00:18:10;5.30;97.70
22645;DHT22;11489;50.834;6.752;2024-03-17T00:20:37;5.30;97.70
22645;DHT22;11489;50.834;6.752;2024-03-17T00:23:04;5.30;97.70
22645;DHT22;11489;50.834;6.752;2024-03-17T00:25:35;5.20;97.70
22645;DHT22;11489;50.834;6.752;2024-03-17T00:28:04;5.20;97.70
22645;DHT22;11489;50.834;6.752;2024-03-17T00:30:30;5.20;97.70
22645;DHT22;11489;50.834;6.752;2024-03-17T00:32:57;5.20;97.70
22645;DHT22;11489;50.834;6.752;2024-03-17T00:35:26;5.10;97.60
22645;DHT22;11489;50.834;6.752;2024-03-17T00:37:52;5.10;97.60
22645;DHT22;11489;50.834;6.752;2024-03-17T00:40:19;5.10;97.70
22645;DHT22;11489;50.834;6.752;2024-03-17T00:42:45;5.10;97.70
22645;DHT22;11489;50.834;6.752;2024-03-17T00:45:11;5.10;97.70
22645;DHT22;11489;50.834;6.752;2024-03-17T00:47:37;5.00;97.70
22645;DHT22;11489;50.834;6.752;2024-03-17T00:50:03;5.00;97.70
22645;DHT22;11489;50.834;6.752;2024-03-17T00:52:30;5.00;97.80
22645;DHT22;11489;50.834;6.752;2024-03-17T00:54:56;5.00;97.90
22645;DHT22;11489;50.834;6.752;2024-03-17T00:57:22;4.90;97.90
22645;DHT22;11489;50.834;6.752;2024-03-17T00:59:47;5.00;98.00
22645;DHT22;11489;50.834;6.752;2024-03-17T01:02:15;4.90;98.00
22645;DHT22;11489;50.834;6.752;2024-03-17T01:04:45;4.90;98.00
22645;DHT22;11489;50.834;6.752;2024-03-17T01:07:11;4.90;98.00
22645;DHT22;11489;50.834;6.752;2024-03-17T01:09:37;4.90;98.00
22645;DHT22;11489;50.834;6.752;2024-03-17T01:12:03;4.90;98.00
22645;DHT22;11489;50.834;6.752;2024-03-17T01:14:30;4.90;97.90
22645;DHT22;11489;50.834;6.752;2024-03-17T01:16:56;4.90;97.90
22645;DHT22;11489;50.834;6.752;2024-03-17T01:19:23;4.90;97.90
22645;DHT22;11489;50.834;6.752;2024-03-17T01:21:48;4.90;97.90
22645;DHT22;11489;50.834;6.752;2024-03-17T01:24:14;4.90;97.90
22645;DHT22;11489;50.834;6.752;2024-03-17T01:26:40;4.80;97.90
22645;DHT22;11489;50.834;6.752;2024-03-17T01:29:06;4.80;97.90
22645;DHT22;11489;50.834;6.752;2024-03-17T01:31:34;4.80;97.90
22645;DHT22;11489;50.834;6.752;2024-03-17T01:34:00;4.80;97.90
22645;DHT22;11489;50.834;6.752;2024-03-17T01:36:26;4.80;97.90
22645;DHT22;11489;50.834;6.752;2024-03-17T01:38:52;4.70;97.90
22645;DHT22;11489;50.834;6.752;2024-03-17T01:41:18;4.70;97.90
22645;DHT22;11489;50.834;6.752;2024-03-17T01:43:43;4.70;97.90
22645;DHT22;11489;50.834;6.752;2024-03-17T01:46:14;4.70;97.90
22645;DHT22;11489;50.834;6.752;2024-03-17T01:48:40;4.70;97.90
22645;DHT22;11489;50.834;6.752;2024-03-17T01:51:07;4.70;97.90
22645;DHT22;11489;50.834;6.752;2024-03-17T01:53:34;4.60;97.80
22645;DHT22;11489;50.834;6.752;2024-03-17T01:56:00;4.60;97.80
22645;DHT22;11489;50.834;6.752;2024-03-17T01:58:27;4.60;98.10
22645;DHT22;11489;50.834;6.752;2024-03-17T02:00:56;4.60;97.80
22645;DHT22;11489;50.834;6.752;2024-03-17T02:03:21;4.50;97.80
22645;DHT22;11489;50.834;6.752;2024-03-17T02:05:48;4.50;97.80
22645;DHT22;11489;50.834;6.752;2024-03-17T02:08:14;4.50;97.80
22645;DHT22;11489;50.834;6.752;2024-03-17T02:10:40;4.50;97.70
22645;DHT22;11489;50.834;6.752;2024-03-17T02:13:06;4.40;97.70
22645;DHT22;11489;50.834;6.752;2024-03-17T02:15:34;4.40;97.70
22645;DHT22;11489;50.834;6.752;2024-03-17T02:18:00;4.40;97.70
22645;DHT22;11489;50.834;6.752;2024-03-17T02:20:26;4.40;97.70
22645;DHT22;11489;50.834;6.752;2024-03-17T02:23:11;4.40;97.70
22645;DHT22;11489;50.834;6.752;2024-03-17T02:25:36;4.30;97.70
22645;DHT22;11489;50.834;6.752;2024-03-17T02:28:02;4.30;97.70
22645;DHT22;11489;50.834;6.752;2024-03-17T02:30:28;4.20;97.60
22645;DHT22;11489;50.834;6.752;2024-03-17T02:32:55;4.20;97.60
22645;DHT22;11489;50.834;6.752;2024-03-17T02:35:22;4.20;97.50
22645;DHT22;11489;50.834;6.752;2024-03-17T02:37:48;4.20;97.50
22645;DHT22;11489;50.834;6.752;2024-03-17T02:40:13;4.10;97.50
22645;DHT22;11489;50.834;6.752;2024-03-17T02:42:39;4.10;97.50
22645;DHT22;11489;50.834;6.752;2024-03-17T02:45:08;4.00;97.50
22645;DHT22;11489;50.834;6.752;2024-03-17T02:47:34;4.00;97.50
22645;DHT22;11489;50.834;6.752;2024-03-17T02:50:00;3.90;97.60
22645;DHT22;11489;50.834;6.752;2024-03-17T02:52:26;3.90;97.60
22645;DHT22;11489;50.834;6.752;2024-03-17T02:54:52;3.90;97.60
22645;DHT22;11489;50.834;6.752;2024-03-17T02:57:19;3.90;97.60
22645;DHT22;11489;50.834;6.752;2024-03-17T02:59:44;3.80;97.60
22645;DHT22;11489;50.834;6.752;2024-03-17T03:02:12;3.80;97.60
22645;DHT22;11489;50.834;6.752;2024-03-17T03:04:37;3.80;97.70
22645;DHT22;11489;50.834;6.752;2024-03-17T03:07:03;3.70;97.70
22645;DHT22;11489;50.834;6.752;2024-03-17T03:09:29;3.70;97.70
22645;DHT22;11489;50.834;6.752;2024-03-17T03:12:01;3.70;97.70
22645;DHT22;11489;50.834;6.752;2024-03-17T03:14:28;3.70;97.70
22645;DHT22;11489;50.834;6.752;2024-03-17T03:16:54;3.60;97.70
22645;DHT22;11489;50.834;6.752;2024-03-17T03:19:20;3.60;97.70
22645;DHT22;11489;50.834;6.752;2024-03-17T03:21:46;3.60;97.70
22645;DHT22;11489;50.834;6.752;2024-03-17T03:24:14;3.60;97.80
22645;DHT22;11489;50.834;6.752;2024-03-17T03:26:40;3.50;97.70
22645;DHT22;11489;50.834;6.752;2024-03-17T03:29:05;3.50;97.70
22645;DHT22;11489;50.834;6.752;2024-03-17T03:31:32;3.50;97.70
22645;DHT22;11489;50.834;6.752;2024-03-17T03:33:58;3.50;97.80
22645;DHT22;11489;50.834;6.752;2024-03-17T03:36:27;3.40;97.80
22645;DHT22;11489;50.834;6.752;2024-03-17T03:38:53;3.40;97.80
22645;DHT22;11489;50.834;6.752;2024-03-17T03:41:19;3.40;97.90
22645;DHT22;11489;50.834;6.752;2024-03-17T03:43:45;3.40;97.90
22645;DHT22;11489;50.834;6.752;2024-03-17T03:46:13;3.40;97.90
22645;DHT22;11489;50.834;6.752;2024-03-17T03:48:39;3.40;97.90
22645;DHT22;11489;50.834;6.752;2024-03-17T03:51:08;3.40;98.00
22645;DHT22;11489;50.834;6.752;2024-03-17T03:53:35;3.40;98.00
22645;DHT22;11489;50.834;6.752;2024-03-17T03:56:05;3.40;98.10
22645;DHT22;11489;50.834;6.752;2024-03-17T03:58:36;3.40;98.10
22645;DHT22;11489;50.834;6.752;2024-03-17T04:01:09;3.40;98.20
22645;DHT22;11489;50.834;6.752;2024-03-17T04:03:37;3.40;98.20
22645;DHT22;11489;50.834;6.752;2024-03-17T04:06:10;3.40;98.20
22645;DHT22;11489;50.834;6.752;2024-03-17T04:08:37;3.50;98.30
22645;DHT22;11489;50.834;6.752;2024-03-17T04:11:05;3.50;98.40
22645;DHT22;11489;50.834;6.752;2024-03-17T04:13:31;3.50;98.50
22645;DHT22;11489;50.834;6.752;2024-03-17T04:16:05;3.50;98.80
22645;DHT22;11489;50.834;6.752;2024-03-17T04:18:32;3.60;98.70
22645;DHT22;11489;50.834;6.752;2024-03-17T04:21:04;3.60;98.70
22645;DHT22;11489;50.834;6.752;2024-03-17T04:23:30;3.70;98.80
22645;DHT22;11489;50.834;6.752;2024-03-17T04:25:58;3.70;98.80
22645;DHT22;11489;50.834;6.752;2024-03-17T04:28:24;3.70;98.80
22645;DHT22;11489;50.834;6.752;2024-03-17T04:30:50;3.80;98.90
22645;DHT22;11489;50.834;6.752;2024-03-17T04:33:16;3.80;98.90
22645;DHT22;11489;50.834;6.752;2024-03-17T04:35:44;3.90;98.90
22645;DHT22;11489;50.834;6.752;2024-03-17T04:38:10;3.90;98.90
22645;DHT22;11489;50.834;6.752;2024-03-17T04:40:42;4.00;99.00
22645;DHT22;11489;50.834;6.752;2024-03-17T04:43:08;4.00;99.00
22645;DHT22;11489;50.834;6.752;2024-03-17T04:45:34;4.10;99.00
22645;DHT22;11489;50.834;6.752;2024-03-17T04:48:00;4.10;99.00
22645;DHT22;11489;50.834;6.752;2024-03-17T04:50:26;4.20;99.00
22645;DHT22;11489;50.834;6.752;2024-03-17T04:52:57;4.20;99.00
22645;DHT22;11489;50.834;6.752;2024-03-17T04:55:23;4.30;99.00
22645;DHT22;11489;50.834;6.752;2024-03-17T04:57:49;4.30;98.90
22645;DHT22;11489;50.834;6.752;2024-03-17T05:00:15;4.40;98.90
22645;DHT22;11489;50.834;6.752;2024-03-17T05:02:43;4.40;98.90
22645;DHT22;11489;50.834;6.752;2024-03-17T05:05:09;4.40;98.80
22645;DHT22;11489;50.834;6.752;2024-03-17T05:07:36;4.40;98.80
22645;DHT22;11489;50.834;6.752;2024-03-17T05:10:03;4.40;98.70
22645;DHT22;11489;50.834;6.752;2024-03-17T05:12:28;4.40;98.60
22645;DHT22;11489;50.834;6.752;2024-03-17T05:14:54;4.50;98.60
22645;DHT22;11489;50.834;6.752;2024-03-17T05:17:20;4.50;98.60
22645;DHT22;11489;50.834;6.752;2024-03-17T05:19:46;4.50;98.50
22645;DHT22;11489;50.834;6.752;2024-03-17T05:22:11;4.50;98.40
22645;DHT22;11489;50.834;6.752;2024-03-17T05:24:37;4.50;98.40
22645;DHT22;11489;50.834;6.752;2024-03-17T05:27:03;4.50;98.30
22645;DHT22;11489;50.834;6.752;2024-03-17T05:29:29;4.50;98.20
22645;DHT22;11489;50.834;6.752;2024-03-17T05:31:55;4.40;98.10
22645;DHT22;11489;50.834;6.752;2024-03-17T05:34:21;4.40;98.00
22645;DHT22;11489;50.834;6.752;2024-03-17T05:36:50;4.40;97.90
22645;DHT22;11489;50.834;6.752;2024-03-17T05:39:16;4.30;97.80
22645;DHT22;11489;50.834;6.752;2024-03-17T05:41:42;4.20;97.80
22645;DHT22;11489;50.834;6.752;2024-03-17T05:44:09;4.20;97.70
22645;DHT22;11489;50.834;6.752;2024-03-17T05:46:35;4.20;97.70
22645;DHT22;11489;50.834;6.752;2024-03-17T05:49:01;4.10;97.70
22645;DHT22;11489;50.834;6.752;2024-03-17T05:51:26;4.10;97.70
22645;DHT22;11489;50.834;6.752;2024-03-17T05:53:53;4.00;97.70
22645;DHT22;11489;50.834;6.752;2024-03-17T05:56:21;4.00;97.70
22645;DHT22;11489;50.834;6.752;2024-03-17T05:58:48;3.90;97.60
22645;DHT22;11489;50.834;6.752;2024-03-17T06:01:13;3.90;97.70
22645;DHT22;11489;50.834;6.752;2024-03-17T06:03:39;3.90;97.70
22645;DHT22;11489;50.834;6.752;2024-03-17T06:06:06;3.90;97.70
22645;DHT22;11489;50.834;6.752;2024-03-17T06:08:38;3.80;97.80
22645;DHT22;11489;50.834;6.752;2024-03-17T06:11:04;3.80;97.80
22645;DHT22;11489;50.834;6.752;2024-03-17T06:13:30;3.80;97.90
22645;DHT22;11489;50.834;6.752;2024-03-17T06:15:56;3.80;98.00
22645;DHT22;11489;50.834;6.752;2024-03-17T06:18:26;3.80;98.10
22645;DHT22;11489;50.834;6.752;2024-03-17T06:20:52;3.70;98.10
22645;DHT22;11489;50.834;6.752;2024-03-17T06:23:18;3.70;98.10
22645;DHT22;11489;50.834;6.752;2024-03-17T06:25:48;3.80;98.20
22645;DHT22;11489;50.834;6.752;2024-03-17T06:28:15;3.80;98.30
22645;DHT22;11489;50.834;6.752;2024-03-17T06:30:45;3.80;98.40
22645;DHT22;11489;50.834;6.752;2024-03-17T06:33:17;3.80;98.60
22645;DHT22;11489;50.834;6.752;2024-03-17T06:35:45;3.80;98.70
22645;DHT22;11489;50.834;6.752;2024-03-17T06:38:14;3.80;98.90
22645;DHT22;11489;50.834;6.752;2024-03-17T06:40:41;3.90;99.00
22645;DHT22;11489;50.834;6.752;2024-03-17T06:43:07;4.00;99.20
22645;DHT22;11489;50.834;6.752;2024-03-17T06:45:33;4.10;99.30
22645;DHT22;11489;50.834;6.752;2024-03-17T06:47:59;4.10;99.30
22645;DHT22;11489;50.834;6.752;2024-03-17T06:50:25;4.20;99.40
22645;DHT22;11489;50.834;6.752;2024-03-17T06:52:50;4.30;99.40
22645;DHT22;11489;50.834;6.752;2024-03-17T06:55:18;4.40;99.40
22645;DHT22;11489;50.834;6.752;2024-03-17T06:57:44;4.40;99.40
22645;DHT22;11489;50.834;6.752;2024-03-17T07:00:13;4.50;99.50
22645;DHT22;11489;50.834;6.752;2024-03-17T07:02:40;4.60;99.60
22645;DHT22;11489;50.834;6.752;2024-03-17T07:05:15;4.70;99.60
22645;DHT22;11489;50.834;6.752;2024-03-17T07:07:42;4.80;99.70
22645;DHT22;11489;50.834;6.752;2024-03-17T07:10:09;4.90;99.80
22645;DHT22;11489;50.834;6.752;2024-03-17T07:12:37;5.00;99.90
22645;DHT22;11489;50.834;6.752;2024-03-17T07:15:03;5.10;99.90
22645;DHT22;11489;50.834;6.752;2024-03-17T07:17:28;5.20;99.90
22645;DHT22;11489;50.834;6.752;2024-03-17T07:19:54;5.30;99.90
22645;DHT22;11489;50.834;6.752;2024-03-17T07:22:20;5.40;99.90
22645;DHT22;11489;50.834;6.752;2024-03-17T07:24:48;5.60;99.90
22645;DHT22;11489;50.834;6.752;2024-03-17T07:27:15;5.70;99.90
22645;DHT22;11489;50.834;6.752;2024-03-17T07:29:41;5.80;99.90
22645;DHT22;11489;50.834;6.752;2024-03-17T07:32:07;5.90;99.90
22645;DHT22;11489;50.834;6.752;2024-03-17T07:34:33;6.10;99.90
22645;DHT22;11489;50.834;6.752;2024-03-17T07:36:59;6.20;99.90
22645;DHT22;11489;50.834;6.752;2024-03-17T07:39:32;6.30;99.90
22645;DHT22;11489;50.834;6.752;2024-03-17T07:41:59;6.50;99.90
22645;DHT22;11489;50.834;6.752;2024-03-17T07:44:25;6.70;99.90
22645;DHT22;11489;50.834;6.752;2024-03-17T07:46:52;6.80;99.90
22645;DHT22;11489;50.834;6.752;2024-03-17T07:49:19;6.90;99.90
22645;DHT22;11489;50.834;6.752;2024-03-17T07:51:45;7.10;99.90
22645;DHT22;11489;50.834;6.752;2024-03-17T07:54:11;7.20;99.90
22645;DHT22;11489;50.834;6.752;2024-03-17T07:56:38;7.40;99.90
22645;DHT22;11489;50.834;6.752;2024-03-17T07:59:04;7.50;99.90
22645;DHT22;11489;50.834;6.752;2024-03-17T08:01:37;7.60;99.90
22645;DHT22;11489;50.834;6.752;2024-03-17T08:04:03;7.80;99.90
22645;DHT22;11489;50.834;6.752;2024-03-17T08:06:29;7.90;99.90
22645;DHT22;11489;50.834;6.752;2024-03-17T08:08:55;8.10;99.90
22645;DHT22;11489;50.834;6.752;2024-03-17T08:11:21;8.30;99.90
22645;DHT22;11489;50.834;6.752;2024-03-17T08:13:46;8.40;99.90
22645;DHT22;11489;50.834;6.752;2024-03-17T08:16:14;8.60;99.90
22645;DHT22;11489;50.834;6.752;2024-03-17T08:18:39;8.80;99.90
22645;DHT22;11489;50.834;6.752;2024-03-17T08:21:08;8.90;99.90
22645;DHT22;11489;50.834;6.752;2024-03-17T08:23:35;9.10;99.90
22645;DHT22;11489;50.834;6.752;2024-03-17T08:26:04;9.20;99.70
22645;DHT22;11489;50.834;6.752;2024-03-17T08:28:30;9.30;99.50
22645;DHT22;11489;50.834;6.752;2024-03-17T08:30:58;9.40;99.40
22645;DHT22;11489;50.834;6.752;2024-03-17T08:33:25;9.50;99.50
22645;DHT22;11489;50.834;6.752;2024-03-17T08:35:55;9.70;99.70
22645;DHT22;11489;50.834;6.752;2024-03-17T08:38:22;9.80;99.80
22645;DHT22;11489;50.834;6.752;2024-03-17T08:40:52;10.00;99.90
22645;DHT22;11489;50.834;6.752;2024-03-17T08:43:19;10.10;99.90
22645;DHT22;11489;50.834;6.752;2024-03-17T08:45:54;10.30;99.90
22645;DHT22;11489;50.834;6.752;2024-03-17T08:48:19;10.50;99.90
22645;DHT22;11489;50.834;6.752;2024-03-17T08:50:55;10.60;99.90
22645;DHT22;11489;50.834;6.752;2024-03-17T08:53:21;10.80;99.70
22645;DHT22;11489;50.834;6.752;2024-03-17T08:55:47;10.90;99.80
22645;DHT22;11489;50.834;6.752;2024-03-17T08:58:13;11.10;99.60
22645;DHT22;11489;50.834;6.752;2024-03-17T09:00:39;11.20;99.50
22645;DHT22;11489;50.834;6.752;2024-03-17T09:03:07;11.30;99.40
22645;DHT22;11489;50.834;6.752;2024-03-17T09:05:36;11.50;99.40
22645;DHT22;11489;50.834;6.752;2024-03-17T09:08:03;11.60;99.40
22645;DHT22;11489;50.834;6.752;2024-03-17T09:10:29;11.80;99.60
22645;DHT22;11489;50.834;6.752;2024-03-17T09:12:55;11.90;99.70
22645;DHT22;11489;50.834;6.752;2024-03-17T09:15:20;12.00;99.60
22645;DHT22;11489;50.834;6.752;2024-03-17T09:17:46;12.20;99.30
22645;DHT22;11489;50.834;6.752;2024-03-17T09:20:13;12.30;99.30
22645;DHT22;11489;50.834;6.752;2024-03-17T09:22:43;12.50;98.90
22645;DHT22;11489;50.834;6.752;2024-03-17T09:25:09;12.60;99.00
22645;DHT22;11489;50.834;6.752;2024-03-17T09:27:35;12.70;99.40
22645;DHT22;11489;50.834;6.752;2024-03-17T09:30:05;12.90;99.80
22645;DHT22;11489;50.834;6.752;2024-03-17T09:32:32;13.10;99.90
22645;DHT22;11489;50.834;6.752;2024-03-17T09:34:58;13.40;99.90
22645;DHT22;11489;50.834;6.752;2024-03-17T09:37:24;13.60;99.90
22645;DHT22;11489;50.834;6.752;2024-03-17T09:39:50;13.90;99.90
22645;DHT22;11489;50.834;6.752;2024-03-17T09:42:19;14.20;99.70
22645;DHT22;11489;50.834;6.752;2024-03-17T09:44:48;14.40;99.10
22645;DHT22;11489;50.834;6.752;2024-03-17T09:47:21;14.60;98.50
22645;DHT22;11489;50.834;6.752;2024-03-17T09:49:48;14.70;97.60
22645;DHT22;11489;50.834;6.752;2024-03-17T09:52:23;14.80;98.10
22645;DHT22;11489;50.834;6.752;2024-03-17T09:54:59;14.90;97.20
22645;DHT22;11489;50.834;6.752;2024-03-17T09:57:26;15.00;96.70
22645;DHT22;11489;50.834;6.752;2024-03-17T09:59:54;15.00;97.60
22645;DHT22;11489;50.834;6.752;2024-03-17T10:02:21;15.10;97.50
22645;DHT22;11489;50.834;6.752;2024-03-17T10:04:48;15.10;97.40
22645;DHT22;11489;50.834;6.752;2024-03-17T10:07:14;15.20;97.40
22645;DHT22;11489;50.834;6.752;2024-03-17T10:09:41;15.20;97.60
22645;DHT22;11489;50.834;6.752;2024-03-17T10:12:28;15.30;97.80
22645;DHT22;11489;50.834;6.752;2024-03-17T10:14:58;15.50;95.60
22645;DHT22;11489;50.834;6.752;2024-03-17T10:17:34;15.60;97.70
22645;DHT22;11489;50.834;6.752;2024-03-17T10:20:17;15.70;97.20
22645;DHT22;11489;50.834;6.752;2024-03-17T10:23:00;16.00;96.40
22645;DHT22;11489;50.834;6.752;2024-03-17T10:25:28;16.10;95.90
22645;DHT22;11489;50.834;6.752;2024-03-17T10:27:54;16.20;97.50
22645;DHT22;11489;50.834;6.752;2024-03-17T10:30:21;16.30;97.30
22645;DHT22;11489;50.834;6.752;2024-03-17T10:32:58;16.40;97.40
22645;DHT22;11489;50.834;6.752;2024-03-17T10:35:32;16.60;96.30
22645;DHT22;11489;50.834;6.752;2024-03-17T10:38:02;16.60;96.30
22645;DHT22;11489;50.834;6.752;2024-03-17T10:40:31;16.70;96.20
22645;DHT22;11489;50.834;6.752;2024-03-17T10:43:00;16.70;97.10
22645;DHT22;11489;50.834;6.752;2024-03-17T10:45:28;16.80;96.80
22645;DHT22;11489;50.834;6.752;2024-03-17T10:48:01;16.90;97.30
22645;DHT22;11489;50.834;6.752;2024-03-17T10:50:35;17.00;97.30
22645;DHT22;11489;50.834;6.752;2024-03-17T10:53:04;17.10;95.80
22645;DHT22;11489;50.834;6.752;2024-03-17T10:55:43;17.20;96.40
22645;DHT22;11489;50.834;6.752;2024-03-17T10:58:29;17.30;95.40
22645;DHT22;11489;50.834;6.752;2024-03-17T11:01:00;17.30;95.10
22645;DHT22;11489;50.834;6.752;2024-03-17T11:03:34;17.40;96.20
22645;DHT22;11489;50.834;6.752;2024-03-17T11:06:04;17.50;95.80
22645;DHT22;11489;50.834;6.752;2024-03-17T11:08:32;17.50;95.20
22645;DHT22;11489;50.834;6.752;2024-03-17T11:10:59;17.60;95.50
22645;DHT22;11489;50.834;6.752;2024-03-17T11:13:30;17.50;95.60
22645;DHT22;11489;50.834;6.752;2024-03-17T11:15:57;17.60;95.40
22645;DHT22;11489;50.834;6.752;2024-03-17T11:23:30;17.70;94.10
22645;DHT22;11489;50.834;6.752;2024-03-17T11:25:57;17.70;94.50
22645;DHT22;11489;50.834;6.752;2024-03-17T11:31:33;17.60;92.60
22645;DHT22;11489;50.834;6.752;2024-03-17T11:34:01;17.60;92.90
22645;DHT22;11489;50.834;6.752;2024-03-17T11:39:00;17.50;94.70
22645;DHT22;11489;50.834;6.752;2024-03-17T11:41:38;17.40;94.60
22645;DHT22;11489;50.834;6.752;2024-03-17T11:44:24;17.40;93.20
22645;DHT22;11489;50.834;6.752;2024-03-17T11:46:56;17.30;92.50
22645;DHT22;11489;50.834;6.752;2024-03-17T11:49:39;17.20;94.50
22645;DHT22;11489;50.834;6.752;2024-03-17T11:52:10;17.10;94.30
22645;DHT22;11489;50.834;6.752;2024-03-17T11:54:43;17.00;93.70
22645;DHT22;11489;50.834;6.752;2024-03-17T11:57:14;16.90;94.30
22645;DHT22;11489;50.834;6.752;2024-03-17T11:59:40;16.90;94.50
22645;DHT22;11489;50.834;6.752;2024-03-17T12:02:23;16.80;94.90
22645;DHT22;11489;50.834;6.752;2024-03-17T12:04:56;16.80;94.40
22645;DHT22;11489;50.834;6.752;2024-03-17T12:07:22;16.90;95.70
22645;DHT22;11489;50.834;6.752;2024-03-17T12:09:50;17.00;95.80
22645;DHT22;11489;50.834;6.752;2024-03-17T12:12:19;17.10;95.60
22645;DHT22;11489;50.834;6.752;2024-03-17T12:14:46;17.20;95.40
22645;DHT22;11489;50.834;6.752;2024-03-17T12:17:14;17.30;95.10
22645;DHT22;11489;50.834;6.752;2024-03-17T12:19:41;17.30;94.70
22645;DHT22;11489;50.834;6.752;2024-03-17T12:22:17;17.30;94.50
22645;DHT22;11489;50.834;6.752;2024-03-17T12:24:51;17.30;93.90
22645;DHT22;11489;50.834;6.752;2024-03-17T12:27:22;17.40;94.50
22645;DHT22;11489;50.834;6.752;2024-03-17T12:29:49;17.30;94.00
22645;DHT22;11489;50.834;6.752;2024-03-17T12:32:17;17.30;94.20
22645;DHT22;11489;50.834;6.752;2024-03-17T12:34:45;17.30;94.10
22645;DHT22;11489;50.834;6.752;2024-03-17T12:37:20;17.30;94.30
22645;DHT22;11489;50.834;6.752;2024-03-17T12:39:46;17.30;93.50
22645;DHT22;11489;50.834;6.752;2024-03-17T12:42:24;17.20;93.90
22645;DHT22;11489;50.834;6.752;2024-03-17T12:44:57;17.20;93.50
22645;DHT22;11489;50.834;6.752;2024-03-17T12:47:28;17.20;93.90
22645;DHT22;11489;50.834;6.752;2024-03-17T12:49:56;17.10;94.10
22645;DHT22;11489;50.834;6.752;2024-03-17T12:52:31;17.10;94.40
22645;DHT22;11489;50.834;6.752;2024-03-17T12:55:05;17.10;94.20
22645;DHT22;11489;50.834;6.752;2024-03-17T12:58:08;17.10;93.60
22645;DHT22;11489;50.834;6.752;2024-03-17T13:01:02;17.10;92.20
22645;DHT22;11489;50.834;6.752;2024-03-17T13:03:31;17.10;93.00
22645;DHT22;11489;50.834;6.752;2024-03-17T13:05:58;17.10;93.80
22645;DHT22;11489;50.834;6.752;2024-03-17T13:08:25;17.00;93.90
22645;DHT22;11489;50.834;6.752;2024-03-17T13:10:50;16.90;93.70
22645;DHT22;11489;50.834;6.752;2024-03-17T13:13:17;16.90;93.60
22645;DHT22;11489;50.834;6.752;2024-03-17T13:15:43;16.80;93.40
22645;DHT22;11489;50.834;6.752;2024-03-17T13:18:12;16.70;93.30
22645;DHT22;11489;50.834;6.752;2024-03-17T13:20:40;16.60;93.30
22645;DHT22;11489;50.834;6.752;2024-03-17T13:23:07;16.50;93.30
22645;DHT22;11489;50.834;6.752;2024-03-17T13:25:33;16.40;93.40
22645;DHT22;11489;50.834;6.752;2024-03-17T13:28:03;16.30;93.80
22645;DHT22;11489;50.834;6.752;2024-03-17T13:30:30;16.20;93.60
22645;DHT22;11489;50.834;6.752;2024-03-17T13:32:56;16.20;93.70
22645;DHT22;11489;50.834;6.752;2024-03-17T13:35:26;16.10;93.70
22645;DHT22;11489;50.834;6.752;2024-03-17T13:37:53;16.10;93.50
22645;DHT22;11489;50.834;6.752;2024-03-17T13:40:26;16.00;93.70
22645;DHT22;11489;50.834;6.752;2024-03-17T13:42:53;16.00;93.60
22645;DHT22;11489;50.834;6.752;2024-03-17T13:45:20;16.00;93.60
22645;DHT22;11489;50.834;6.752;2024-03-17T13:47:58;15.90;93.60
22645;DHT22;11489;50.834;6.752;2024-03-17T13:50:25;15.90;92.50
22645;DHT22;11489;50.834;6.752;2024-03-17T13:52:51;15.90;93.60
22645;DHT22;11489;50.834;6.752;2024-03-17T13:55:19;15.80;93.70
22645;DHT22;11489;50.834;6.752;2024-03-17T13:57:56;15.80;93.70
22645;DHT22;11489;50.834;6.752;2024-03-17T14:00:24;15.80;92.70
22645;DHT22;11489;50.834;6.752;2024-03-17T14:02:52;15.70;93.80
22645;DHT22;11489;50.834;6.752;2024-03-17T14:05:20;15.70;93.90
22645;DHT22;11489;50.834;6.752;2024-03-17T14:07:46;15.70;93.90
22645;DHT22;11489;50.834;6.752;2024-03-17T14:10:17;15.70;94.00
22645;DHT22;11489;50.834;6.752;2024-03-17T14:12:43;15.70;94.10
22645;DHT22;11489;50.834;6.752;2024-03-17T14:15:11;15.80;94.30
22645;DHT22;11489;50.834;6.752;2024-03-17T14:17:55;15.80;94.20
22645;DHT22;11489;50.834;6.752;2024-03-17T14:20:21;15.80;92.80
22645;DHT22;11489;50.834;6.752;2024-03-17T14:22:48;15.90;94.20
22645;DHT22;11489;50.834;6.752;2024-03-17T14:25:19;15.90;94.10
22645;DHT22;11489;50.834;6.752;2024-03-17T14:27:45;15.90;94.40
22645;DHT22;11489;50.834;6.752;2024-03-17T14:30:16;16.00;94.40
22645;DHT22;11489;50.834;6.752;2024-03-17T14:32:42;16.00;94.20
22645;DHT22;11489;50.834;6.752;2024-03-17T14:35:14;16.20;95.00
22645;DHT22;11489;50.834;6.752;2024-03-17T14:37:41;16.30;94.30
22645;DHT22;11489;50.834;6.752;2024-03-17T14:40:09;16.40;94.90
22645;DHT22;11489;50.834;6.752;2024-03-17T14:42:43;16.60;94.80
22645;DHT22;11489;50.834;6.752;2024-03-17T14:45:09;16.70;94.70
22645;DHT22;11489;50.834;6.752;2024-03-17T14:47:34;16.80;94.60
22645;DHT22;11489;50.834;6.752;2024-03-17T14:50:00;16.90;94.40
22645;DHT22;11489;50.834;6.752;2024-03-17T14:52:26;17.10;94.30
22645;DHT22;11489;50.834;6.752;2024-03-17T14:54:52;17.10;94.20
22645;DHT22;11489;50.834;6.752;2024-03-17T14:57:19;17.20;94.00
22645;DHT22;11489;50.834;6.752;2024-03-17T14:59:46;17.30;93.80
22645;DHT22;11489;50.834;6.752;2024-03-17T15:02:12;17.40;93.80
22645;DHT22;11489;50.834;6.752;2024-03-17T15:04:37;17.40;93.40
22645;DHT22;11489;50.834;6.752;2024-03-17T15:07:03;17.40;93.30
22645;DHT22;11489;50.834;6.752;2024-03-17T15:09:29;17.50;93.00
22645;DHT22;11489;50.834;6.752;2024-03-17T15:11:55;17.40;92.90
22645;DHT22;11489;50.834;6.752;2024-03-17T15:14:20;17.40;92.70
22645;DHT22;11489;50.834;6.752;2024-03-17T15:16:46;17.40;92.50
22645;DHT22;11489;50.834;6.752;2024-03-17T15:19:12;17.40;92.30
22645;DHT22;11489;50.834;6.752;2024-03-17T15:21:38;17.30;92.50
22645;DHT22;11489;50.834;6.752;2024-03-17T15:24:03;17.30;92.10
22645;DHT22;11489;50.834;6.752;2024-03-17T15:26:30;17.10;92.00
22645;DHT22;11489;50.834;6.752;2024-03-17T15:28:55;17.10;92.00
22645;DHT22;11489;50.834;6.752;2024-03-17T15:31:23;17.00;92.00
22645;DHT22;11489;50.834;6.752;2024-03-17T15:33:50;16.90;92.10
22645;DHT22;11489;50.834;6.752;2024-03-17T15:36:16;16.90;92.00
22645;DHT22;11489;50.834;6.752;2024-03-17T15:38:42;16.80;92.30
22645;DHT22;11489;50.834;6.752;2024-03-17T15:41:10;16.80;92.60
22645;DHT22;11489;50.834;6.752;2024-03-17T15:43:37;16.80;93.10
22645;DHT22;11489;50.834;6.752;2024-03-17T15:46:20;16.90;93.80
22645;DHT22;11489;50.834;6.752;2024-03-17T15:48:48;17.00;92.70
22645;DHT22;11489;50.834;6.752;2024-03-17T15:51:14;17.20;94.20
22645;DHT22;11489;50.834;6.752;2024-03-17T15:53:43;17.40;94.20
22645;DHT22;11489;50.834;6.752;2024-03-17T15:56:09;17.60;94.00